sensor_id;sensor_type;location;lat;lon;timestamp;P1;durP1;ratioP1;P2;durP2;ratioP2
27925;SDS011;15267;47.838;12.128;2023-08-24T00:00:59;12.82;;;6.80;;
27925;SDS011;15267;47.838;12.128;2023-08-24T00:03:25;8.02;;;6.45;;
27925;SDS011;15267;47.838;12.128;2023-08-24T00:05:51;8.57;;;6.18;;
27925;SDS011;15267;47.838;12.128;2023-08-24T00:08:17;9.82;;;7.28;;
27925;SDS011;15267;47.838;12.128;2023-08-24T00:10:43;7.85;;;6.50;;
27925;SDS011;15267;47.838;12.128;2023-08-24T00:13:11;9.52;;;7.15;;
27925;SDS011;15267;47.838;12.128;2023-08-24T00:15:37;8.38;;;6.85;;
27925;SDS011;15267;47.838;12.128;2023-08-24T00:18:04;7.18;;;6.30;;
27925;SDS011;15267;47.838;12.128;2023-08-24T00:20:30;7.47;;;6.63;;
27925;SDS011;15267;47.838;12.128;2023-08-24T00:22:57;7.32;;;6.63;;
27925;SDS011;15267;47.838;12.128;2023-08-24T00:25:23;9.90;;;6.45;;
27925;SDS011;15267;47.838;12.128;2023-08-24T00:27:50;7.03;;;6.30;;
27925;SDS011;15267;47.838;12.128;2023-08-24T00:30:16;8.82;;;6.40;;
27925;SDS011;15267;47.838;12.128;2023-08-24T00:32:42;10.80;;;7.20;;
27925;SDS011;15267;47.838;12.128;2023-08-24T00:35:08;8.30;;;6.90;;
27925;SDS011;15267;47.838;12.128;2023-08-24T00:37:35;10.35;;;7.03;;
27925;SDS011;15267;47.838;12.128;2023-08-24T00:40:02;7.47;;;6.57;;
27925;SDS011;15267;47.838;12.128;2023-08-24T00:42:29;9.35;;;6.63;;
27925;SDS011;15267;47.838;12.128;2023-08-24T00:44:56;8.32;;;5.80;;
27925;SDS011;15267;47.838;12.128;2023-08-24T00:47:23;11.00;;;6.60;;
27925;SDS011;15267;47.838;12.128;2023-08-24T00:49:49;7.20;;;6.00;;
27925;SDS011;15267;47.838;12.128;2023-08-24T00:52:15;9.02;;;6.43;;
27925;SDS011;15267;47.838;12.128;2023-08-24T00:54:41;10.70;;;6.05;;
27925;SDS011;15267;47.838;12.128;2023-08-24T00:57:07;7.50;;;6.60;;
27925;SDS011;15267;47.838;12.128;2023-08-24T00:59:33;10.32;;;6.47;;
27925;SDS011;15267;47.838;12.128;2023-08-24T01:01:59;11.32;;;6.68;;
27925;SDS011;15267;47.838;12.128;2023-08-24T01:04:26;8.00;;;5.90;;
27925;SDS011;15267;47.838;12.128;2023-08-24T01:06:52;8.80;;;7.03;;
27925;SDS011;15267;47.838;12.128;2023-08-24T01:09:18;8.57;;;6.30;;
27925;SDS011;15267;47.838;12.128;2023-08-24T01:11:49;12.95;;;6.95;;
27925;SDS011;15267;47.838;12.128;2023-08-24T01:14:30;8.77;;;6.38;;
27925;SDS011;15267;47.838;12.128;2023-08-24T01:17:03;8.50;;;6.10;;
27925;SDS011;15267;47.838;12.128;2023-08-24T01:19:41;8.48;;;6.50;;
27925;SDS011;15267;47.838;12.128;2023-08-24T01:22:08;7.93;;;5.90;;
27925;SDS011;15267;47.838;12.128;2023-08-24T01:24:40;7.90;;;6.47;;
27925;SDS011;15267;47.838;12.128;2023-08-24T01:27:07;7.97;;;6.30;;
27925;SDS011;15267;47.838;12.128;2023-08-24T01:29:34;10.52;;;6.10;;
27925;SDS011;15267;47.838;12.128;2023-08-24T01:32:01;13.43;;;6.43;;
27925;SDS011;15267;47.838;12.128;2023-08-24T01:34:27;8.25;;;6.80;;
27925;SDS011;15267;47.838;12.128;2023-08-24T01:36:53;8.75;;;6.80;;
27925;SDS011;15267;47.838;12.128;2023-08-24T01:41:46;8.55;;;6.30;;
27925;SDS011;15267;47.838;12.128;2023-08-24T01:44:15;10.13;;;6.55;;
27925;SDS011;15267;47.838;12.128;2023-08-24T01:46:43;7.68;;;6.43;;
27925;SDS011;15267;47.838;12.128;2023-08-24T01:49:11;8.13;;;6.00;;
27925;SDS011;15267;47.838;12.128;2023-08-24T01:51:38;7.05;;;5.60;;
27925;SDS011;15267;47.838;12.128;2023-08-24T01:54:04;7.72;;;5.68;;
27925;SDS011;15267;47.838;12.128;2023-08-24T01:56:30;7.75;;;5.90;;
27925;SDS011;15267;47.838;12.128;2023-08-24T01:58:56;6.35;;;5.75;;
27925;SDS011;15267;47.838;12.128;2023-08-24T02:01:23;6.72;;;5.60;;
27925;SDS011;15267;47.838;12.128;2023-08-24T02:03:49;8.23;;;5.63;;
27925;SDS011;15267;47.838;12.128;2023-08-24T02:06:15;8.75;;;5.50;;
27925;SDS011;15267;47.838;12.128;2023-08-24T02:08:41;10.20;;;5.50;;
27925;SDS011;15267;47.838;12.128;2023-08-24T02:11:09;7.22;;;5.43;;
27925;SDS011;15267;47.838;12.128;2023-08-24T02:13:35;8.02;;;5.53;;
27925;SDS011;15267;47.838;12.128;2023-08-24T02:16:02;8.68;;;5.35;;
27925;SDS011;15267;47.838;12.128;2023-08-24T02:18:28;8.05;;;5.05;;
27925;SDS011;15267;47.838;12.128;2023-08-24T02:20:54;11.55;;;5.63;;
27925;SDS011;15267;47.838;12.128;2023-08-24T02:23:20;8.23;;;5.15;;
27925;SDS011;15267;47.838;12.128;2023-08-24T02:25:46;11.50;;;5.10;;
27925;SDS011;15267;47.838;12.128;2023-08-24T02:28:12;8.93;;;4.75;;
27925;SDS011;15267;47.838;12.128;2023-08-24T02:30:38;5.50;;;4.75;;
27925;SDS011;15267;47.838;12.128;2023-08-24T02:33:04;9.52;;;4.82;;
27925;SDS011;15267;47.838;12.128;2023-08-24T02:35:30;10.45;;;5.70;;
27925;SDS011;15267;47.838;12.128;2023-08-24T02:37:56;12.77;;;5.05;;
27925;SDS011;15267;47.838;12.128;2023-08-24T02:40:22;9.63;;;4.90;;
27925;SDS011;15267;47.838;12.128;2023-08-24T02:42:48;6.07;;;4.88;;
27925;SDS011;15267;47.838;12.128;2023-08-24T02:45:14;7.07;;;4.90;;
27925;SDS011;15267;47.838;12.128;2023-08-24T02:47:40;8.68;;;5.38;;
27925;SDS011;15267;47.838;12.128;2023-08-24T02:50:06;8.80;;;5.05;;
27925;SDS011;15267;47.838;12.128;2023-08-24T02:52:32;10.93;;;5.68;;
27925;SDS011;15267;47.838;12.128;2023-08-24T02:54:59;12.25;;;5.63;;
27925;SDS011;15267;47.838;12.128;2023-08-24T02:57:25;6.95;;;5.40;;
27925;SDS011;15267;47.838;12.128;2023-08-24T02:59:50;8.48;;;4.85;;
27925;SDS011;15267;47.838;12.128;2023-08-24T03:02:16;6.13;;;5.00;;
27925;SDS011;15267;47.838;12.128;2023-08-24T03:04:43;6.93;;;5.10;;
27925;SDS011;15267;47.838;12.128;2023-08-24T03:07:09;7.78;;;5.30;;
27925;SDS011;15267;47.838;12.128;2023-08-24T03:09:35;7.05;;;5.10;;
27925;SDS011;15267;47.838;12.128;2023-08-24T03:12:01;7.28;;;5.05;;
27925;SDS011;15267;47.838;12.128;2023-08-24T03:14:28;8.65;;;5.25;;
27925;SDS011;15267;47.838;12.128;2023-08-24T03:16:54;7.97;;;5.45;;
27925;SDS011;15267;47.838;12.128;2023-08-24T03:19:19;7.05;;;5.65;;
27925;SDS011;15267;47.838;12.128;2023-08-24T03:21:45;5.47;;;4.70;;
27925;SDS011;15267;47.838;12.128;2023-08-24T03:24:11;9.27;;;5.20;;
27925;SDS011;15267;47.838;12.128;2023-08-24T03:26:37;16.42;;;5.53;;
27925;SDS011;15267;47.838;12.128;2023-08-24T03:29:03;9.35;;;5.30;;
27925;SDS011;15267;47.838;12.128;2023-08-24T03:31:29;8.00;;;5.20;;
27925;SDS011;15267;47.838;12.128;2023-08-24T03:33:56;10.13;;;5.47;;
27925;SDS011;15267;47.838;12.128;2023-08-24T03:36:22;6.15;;;4.60;;
27925;SDS011;15267;47.838;12.128;2023-08-24T03:38:48;7.90;;;5.70;;
27925;SDS011;15267;47.838;12.128;2023-08-24T03:41:14;7.45;;;4.90;;
27925;SDS011;15267;47.838;12.128;2023-08-24T03:43:40;8.32;;;5.15;;
27925;SDS011;15267;47.838;12.128;2023-08-24T03:46:06;10.15;;;4.95;;
27925;SDS011;15267;47.838;12.128;2023-08-24T03:48:32;9.05;;;5.82;;
27925;SDS011;15267;47.838;12.128;2023-08-24T03:50:58;10.07;;;5.95;;
27925;SDS011;15267;47.838;12.128;2023-08-24T03:53:25;5.53;;;4.93;;
27925;SDS011;15267;47.838;12.128;2023-08-24T03:55:51;6.45;;;5.07;;
27925;SDS011;15267;47.838;12.128;2023-08-24T03:58:17;9.05;;;5.28;;
27925;SDS011;15267;47.838;12.128;2023-08-24T04:00:46;7.00;;;5.22;;
27925;SDS011;15267;47.838;12.128;2023-08-24T04:03:12;6.43;;;5.47;;
27925;SDS011;15267;47.838;12.128;2023-08-24T04:05:38;12.55;;;5.38;;
27925;SDS011;15267;47.838;12.128;2023-08-24T04:08:04;10.15;;;5.13;;
27925;SDS011;15267;47.838;12.128;2023-08-24T04:10:30;7.10;;;5.55;;
27925;SDS011;15267;47.838;12.128;2023-08-24T04:12:56;6.85;;;5.22;;
27925;SDS011;15267;47.838;12.128;2023-08-24T04:15:22;7.55;;;5.13;;
27925;SDS011;15267;47.838;12.128;2023-08-24T04:17:48;6.60;;;5.20;;
27925;SDS011;15267;47.838;12.128;2023-08-24T04:20:14;7.00;;;5.07;;
27925;SDS011;15267;47.838;12.128;2023-08-24T04:22:41;10.93;;;5.28;;
27925;SDS011;15267;47.838;12.128;2023-08-24T04:25:07;7.50;;;5.20;;
27925;SDS011;15267;47.838;12.128;2023-08-24T04:27:33;6.80;;;5.05;;
27925;SDS011;15267;47.838;12.128;2023-08-24T04:29:59;5.95;;;4.80;;
27925;SDS011;15267;47.838;12.128;2023-08-24T04:32:25;9.82;;;5.43;;
27925;SDS011;15267;47.838;12.128;2023-08-24T04:34:51;9.05;;;5.15;;
27925;SDS011;15267;47.838;12.128;2023-08-24T04:37:17;11.23;;;5.50;;
27925;SDS011;15267;47.838;12.128;2023-08-24T04:39:43;7.65;;;5.00;;
27925;SDS011;15267;47.838;12.128;2023-08-24T04:42:09;9.65;;;5.22;;
27925;SDS011;15267;47.838;12.128;2023-08-24T04:44:35;11.52;;;5.30;;
27925;SDS011;15267;47.838;12.128;2023-08-24T04:47:01;8.82;;;4.97;;
27925;SDS011;15267;47.838;12.128;2023-08-24T04:49:27;8.43;;;5.57;;
27925;SDS011;15267;47.838;12.128;2023-08-24T04:51:54;7.38;;;5.00;;
27925;SDS011;15267;47.838;12.128;2023-08-24T04:54:20;10.52;;;5.63;;
27925;SDS011;15267;47.838;12.128;2023-08-24T04:56:46;6.35;;;4.70;;
27925;SDS011;15267;47.838;12.128;2023-08-24T04:59:12;6.25;;;5.45;;
27925;SDS011;15267;47.838;12.128;2023-08-24T05:01:39;7.57;;;5.55;;
27925;SDS011;15267;47.838;12.128;2023-08-24T05:04:05;7.38;;;5.28;;
27925;SDS011;15267;47.838;12.128;2023-08-24T05:06:31;10.23;;;6.10;;
27925;SDS011;15267;47.838;12.128;2023-08-24T05:08:57;8.80;;;5.80;;
27925;SDS011;15267;47.838;12.128;2023-08-24T05:11:23;9.93;;;6.03;;
27925;SDS011;15267;47.838;12.128;2023-08-24T05:13:51;7.47;;;6.25;;
27925;SDS011;15267;47.838;12.128;2023-08-24T05:16:17;8.82;;;6.00;;
27925;SDS011;15267;47.838;12.128;2023-08-24T05:18:43;9.25;;;6.10;;
27925;SDS011;15267;47.838;12.128;2023-08-24T05:21:09;9.85;;;6.10;;
27925;SDS011;15267;47.838;12.128;2023-08-24T05:23:35;13.27;;;6.15;;
27925;SDS011;15267;47.838;12.128;2023-08-24T05:26:01;6.35;;;5.50;;
27925;SDS011;15267;47.838;12.128;2023-08-24T05:28:28;10.88;;;6.13;;
27925;SDS011;15267;47.838;12.128;2023-08-24T05:30:54;8.30;;;6.05;;
27925;SDS011;15267;47.838;12.128;2023-08-24T05:33:21;10.95;;;6.05;;
27925;SDS011;15267;47.838;12.128;2023-08-24T05:35:48;11.57;;;6.38;;
27925;SDS011;15267;47.838;12.128;2023-08-24T05:38:14;11.60;;;7.35;;
27925;SDS011;15267;47.838;12.128;2023-08-24T05:40:40;7.90;;;6.18;;
27925;SDS011;15267;47.838;12.128;2023-08-24T05:43:07;14.00;;;7.43;;
27925;SDS011;15267;47.838;12.128;2023-08-24T05:45:33;15.27;;;7.40;;
27925;SDS011;15267;47.838;12.128;2023-08-24T05:47:59;11.30;;;7.72;;
27925;SDS011;15267;47.838;12.128;2023-08-24T05:50:25;15.98;;;8.27;;
27925;SDS011;15267;47.838;12.128;2023-08-24T05:52:51;15.90;;;6.97;;
27925;SDS011;15267;47.838;12.128;2023-08-24T05:55:17;13.32;;;8.43;;
27925;SDS011;15267;47.838;12.128;2023-08-24T05:57:43;9.73;;;6.90;;
27925;SDS011;15267;47.838;12.128;2023-08-24T06:00:09;12.40;;;7.03;;
27925;SDS011;15267;47.838;12.128;2023-08-24T06:02:36;11.73;;;8.20;;
27925;SDS011;15267;47.838;12.128;2023-08-24T06:05:02;9.80;;;7.00;;
27925;SDS011;15267;47.838;12.128;2023-08-24T06:07:28;11.20;;;7.07;;
27925;SDS011;15267;47.838;12.128;2023-08-24T06:09:54;8.02;;;7.20;;
27925;SDS011;15267;47.838;12.128;2023-08-24T06:12:21;10.88;;;7.13;;
27925;SDS011;15267;47.838;12.128;2023-08-24T06:14:47;11.35;;;7.50;;
27925;SDS011;15267;47.838;12.128;2023-08-24T06:17:13;13.63;;;7.95;;
27925;SDS011;15267;47.838;12.128;2023-08-24T06:19:39;11.07;;;6.97;;
27925;SDS011;15267;47.838;12.128;2023-08-24T06:22:06;11.85;;;7.75;;
27925;SDS011;15267;47.838;12.128;2023-08-24T06:24:32;9.25;;;6.43;;
27925;SDS011;15267;47.838;12.128;2023-08-24T06:26:58;8.35;;;7.38;;
27925;SDS011;15267;47.838;12.128;2023-08-24T06:29:24;10.65;;;7.05;;
27925;SDS011;15267;47.838;12.128;2023-08-24T06:31:50;10.40;;;6.78;;
27925;SDS011;15267;47.838;12.128;2023-08-24T06:34:16;10.45;;;7.57;;
27925;SDS011;15267;47.838;12.128;2023-08-24T06:36:42;11.70;;;8.38;;
27925;SDS011;15267;47.838;12.128;2023-08-24T06:39:08;12.45;;;8.60;;
27925;SDS011;15267;47.838;12.128;2023-08-24T06:41:35;12.70;;;9.00;;
27925;SDS011;15267;47.838;12.128;2023-08-24T06:44:01;12.10;;;8.80;;
27925;SDS011;15267;47.838;12.128;2023-08-24T06:46:27;14.90;;;9.00;;
27925;SDS011;15267;47.838;12.128;2023-08-24T06:48:53;12.25;;;8.82;;
27925;SDS011;15267;47.838;12.128;2023-08-24T06:51:19;10.63;;;8.35;;
27925;SDS011;15267;47.838;12.128;2023-08-24T06:53:45;14.85;;;8.77;;
27925;SDS011;15267;47.838;12.128;2023-08-24T06:56:14;15.68;;;8.93;;
27925;SDS011;15267;47.838;12.128;2023-08-24T06:58:40;14.20;;;9.02;;
27925;SDS011;15267;47.838;12.128;2023-08-24T07:01:07;16.83;;;9.20;;
27925;SDS011;15267;47.838;12.128;2023-08-24T07:03:33;14.52;;;8.88;;
27925;SDS011;15267;47.838;12.128;2023-08-24T07:05:59;12.07;;;8.77;;
27925;SDS011;15267;47.838;12.128;2023-08-24T07:08:25;14.70;;;8.57;;
27925;SDS011;15267;47.838;12.128;2023-08-24T07:10:51;12.95;;;8.10;;
27925;SDS011;15267;47.838;12.128;2023-08-24T07:13:17;14.35;;;7.80;;
27925;SDS011;15267;47.838;12.128;2023-08-24T07:15:43;12.45;;;10.35;;
27925;SDS011;15267;47.838;12.128;2023-08-24T07:18:10;12.80;;;9.02;;
27925;SDS011;15267;47.838;12.128;2023-08-24T07:20:39;15.95;;;9.93;;
27925;SDS011;15267;47.838;12.128;2023-08-24T07:23:05;12.90;;;10.63;;
27925;SDS011;15267;47.838;12.128;2023-08-24T07:25:31;14.55;;;11.05;;
27925;SDS011;15267;47.838;12.128;2023-08-24T07:27:57;11.77;;;9.48;;
27925;SDS011;15267;47.838;12.128;2023-08-24T07:30:25;19.50;;;10.35;;
27925;SDS011;15267;47.838;12.128;2023-08-24T07:32:52;14.30;;;9.80;;
27925;SDS011;15267;47.838;12.128;2023-08-24T07:35:17;12.73;;;9.35;;
27925;SDS011;15267;47.838;12.128;2023-08-24T07:37:45;14.68;;;11.70;;
27925;SDS011;15267;47.838;12.128;2023-08-24T07:40:11;17.40;;;11.20;;
27925;SDS011;15267;47.838;12.128;2023-08-24T07:42:47;15.73;;;9.88;;
27925;SDS011;15267;47.838;12.128;2023-08-24T07:45:13;16.48;;;10.88;;
27925;SDS011;15267;47.838;12.128;2023-08-24T07:47:40;15.25;;;11.70;;
27925;SDS011;15267;47.838;12.128;2023-08-24T07:50:06;12.93;;;9.45;;
27925;SDS011;15267;47.838;12.128;2023-08-24T07:52:33;15.45;;;10.05;;
27925;SDS011;15267;47.838;12.128;2023-08-24T07:54:58;18.05;;;11.80;;
27925;SDS011;15267;47.838;12.128;2023-08-24T07:57:28;12.05;;;10.77;;
27925;SDS011;15267;47.838;12.128;2023-08-24T07:59:54;12.43;;;9.35;;
27925;SDS011;15267;47.838;12.128;2023-08-24T08:02:20;11.55;;;9.20;;
27925;SDS011;15267;47.838;12.128;2023-08-24T08:04:46;15.10;;;9.35;;
27925;SDS011;15267;47.838;12.128;2023-08-24T08:07:12;14.30;;;9.50;;
27925;SDS011;15267;47.838;12.128;2023-08-24T08:09:38;16.35;;;11.65;;
27925;SDS011;15267;47.838;12.128;2023-08-24T08:12:04;15.95;;;9.43;;
27925;SDS011;15267;47.838;12.128;2023-08-24T08:14:30;13.55;;;9.25;;
27925;SDS011;15267;47.838;12.128;2023-08-24T08:16:56;12.43;;;8.82;;
27925;SDS011;15267;47.838;12.128;2023-08-24T08:19:22;11.18;;;9.10;;
27925;SDS011;15267;47.838;12.128;2023-08-24T08:21:50;11.50;;;8.40;;
27925;SDS011;15267;47.838;12.128;2023-08-24T08:24:16;11.02;;;8.38;;
27925;SDS011;15267;47.838;12.128;2023-08-24T08:26:42;15.18;;;8.60;;
27925;SDS011;15267;47.838;12.128;2023-08-24T08:29:08;12.18;;;8.35;;
27925;SDS011;15267;47.838;12.128;2023-08-24T08:31:34;15.23;;;9.15;;
27925;SDS011;15267;47.838;12.128;2023-08-24T08:34:00;12.13;;;7.93;;
27925;SDS011;15267;47.838;12.128;2023-08-24T08:36:29;14.02;;;9.30;;
27925;SDS011;15267;47.838;12.128;2023-08-24T08:38:57;15.27;;;10.50;;
27925;SDS011;15267;47.838;12.128;2023-08-24T08:41:24;11.68;;;9.20;;
27925;SDS011;15267;47.838;12.128;2023-08-24T08:43:52;9.93;;;8.43;;
27925;SDS011;15267;47.838;12.128;2023-08-24T08:46:18;11.10;;;7.57;;
27925;SDS011;15267;47.838;12.128;2023-08-24T08:48:44;10.45;;;8.10;;
27925;SDS011;15267;47.838;12.128;2023-08-24T08:51:11;10.82;;;7.60;;
27925;SDS011;15267;47.838;12.128;2023-08-24T08:53:38;11.07;;;8.18;;
27925;SDS011;15267;47.838;12.128;2023-08-24T08:56:04;11.88;;;7.72;;
27925;SDS011;15267;47.838;12.128;2023-08-24T08:58:34;12.57;;;7.28;;
27925;SDS011;15267;47.838;12.128;2023-08-24T09:01:02;15.15;;;7.50;;
27925;SDS011;15267;47.838;12.128;2023-08-24T09:03:29;15.77;;;7.15;;
27925;SDS011;15267;47.838;12.128;2023-08-24T09:05:56;9.65;;;7.05;;
27925;SDS011;15267;47.838;12.128;2023-08-24T09:08:23;11.32;;;7.13;;
27925;SDS011;15267;47.838;12.128;2023-08-24T09:10:49;9.90;;;6.68;;
27925;SDS011;15267;47.838;12.128;2023-08-24T09:13:16;8.05;;;6.90;;
27925;SDS011;15267;47.838;12.128;2023-08-24T09:15:42;8.98;;;6.97;;
27925;SDS011;15267;47.838;12.128;2023-08-24T09:18:08;9.95;;;6.53;;
27925;SDS011;15267;47.838;12.128;2023-08-24T09:20:34;9.82;;;6.47;;
27925;SDS011;15267;47.838;12.128;2023-08-24T09:23:00;11.02;;;6.38;;
27925;SDS011;15267;47.838;12.128;2023-08-24T09:25:26;12.40;;;6.35;;
27925;SDS011;15267;47.838;12.128;2023-08-24T09:28:02;9.27;;;6.82;;
27925;SDS011;15267;47.838;12.128;2023-08-24T09:30:36;14.63;;;6.75;;
27925;SDS011;15267;47.838;12.128;2023-08-24T09:33:12;8.82;;;6.10;;
27925;SDS011;15267;47.838;12.128;2023-08-24T09:35:38;11.70;;;6.53;;
27925;SDS011;15267;47.838;12.128;2023-08-24T09:38:17;13.65;;;6.30;;
27925;SDS011;15267;47.838;12.128;2023-08-24T09:40:46;10.52;;;6.45;;
27925;SDS011;15267;47.838;12.128;2023-08-24T09:43:13;11.45;;;6.20;;
27925;SDS011;15267;47.838;12.128;2023-08-24T09:45:47;10.13;;;6.15;;
27925;SDS011;15267;47.838;12.128;2023-08-24T09:48:14;14.13;;;5.85;;
27925;SDS011;15267;47.838;12.128;2023-08-24T09:50:40;10.10;;;5.90;;
27925;SDS011;15267;47.838;12.128;2023-08-24T09:53:06;13.60;;;7.13;;
27925;SDS011;15267;47.838;12.128;2023-08-24T09:55:33;9.65;;;6.40;;
27925;SDS011;15267;47.838;12.128;2023-08-24T09:58:00;11.50;;;6.18;;
27925;SDS011;15267;47.838;12.128;2023-08-24T10:00:27;10.82;;;6.22;;
27925;SDS011;15267;47.838;12.128;2023-08-24T10:02:55;9.10;;;5.57;;
27925;SDS011;15267;47.838;12.128;2023-08-24T10:05:22;8.43;;;6.32;;
27925;SDS011;15267;47.838;12.128;2023-08-24T10:07:52;12.52;;;6.50;;
27925;SDS011;15267;47.838;12.128;2023-08-24T10:10:19;9.85;;;6.10;;
27925;SDS011;15267;47.838;12.128;2023-08-24T10:12:47;11.98;;;6.50;;
27925;SDS011;15267;47.838;12.128;2023-08-24T10:15:16;7.80;;;6.50;;
27925;SDS011;15267;47.838;12.128;2023-08-24T10:17:43;11.88;;;6.78;;
27925;SDS011;15267;47.838;12.128;2023-08-24T10:20:10;10.23;;;6.35;;
27925;SDS011;15267;47.838;12.128;2023-08-24T10:22:37;12.80;;;6.22;;
27925;SDS011;15267;47.838;12.128;2023-08-24T10:25:06;11.50;;;6.53;;
27925;SDS011;15267;47.838;12.128;2023-08-24T10:27:34;13.10;;;6.00;;
27925;SDS011;15267;47.838;12.128;2023-08-24T10:30:00;11.02;;;5.85;;
27925;SDS011;15267;47.838;12.128;2023-08-24T10:32:26;10.13;;;6.57;;
27925;SDS011;15267;47.838;12.128;2023-08-24T10:34:52;11.32;;;6.10;;
27925;SDS011;15267;47.838;12.128;2023-08-24T10:37:24;10.10;;;6.05;;
27925;SDS011;15267;47.838;12.128;2023-08-24T10:39:50;8.55;;;5.50;;
27925;SDS011;15267;47.838;12.128;2023-08-24T10:42:16;8.82;;;6.05;;
27925;SDS011;15267;47.838;12.128;2023-08-24T10:44:46;7.13;;;5.55;;
27925;SDS011;15267;47.838;12.128;2023-08-24T10:47:22;9.60;;;5.78;;
27925;SDS011;15267;47.838;12.128;2023-08-24T10:52:21;11.88;;;5.88;;
27925;SDS011;15267;47.838;12.128;2023-08-24T10:54:51;6.70;;;5.18;;
27925;SDS011;15267;47.838;12.128;2023-08-24T10:57:18;10.00;;;5.88;;
27925;SDS011;15267;47.838;12.128;2023-08-24T10:59:45;10.10;;;5.25;;
27925;SDS011;15267;47.838;12.128;2023-08-24T11:02:18;9.80;;;5.45;;
27925;SDS011;15267;47.838;12.128;2023-08-24T11:07:30;10.45;;;5.40;;
27925;SDS011;15267;47.838;12.128;2023-08-24T11:09:56;8.40;;;5.00;;
27925;SDS011;15267;47.838;12.128;2023-08-24T11:12:22;13.02;;;5.25;;
27925;SDS011;15267;47.838;12.128;2023-08-24T11:14:49;9.75;;;5.28;;
27925;SDS011;15267;47.838;12.128;2023-08-24T11:17:22;9.43;;;4.88;;
27925;SDS011;15267;47.838;12.128;2023-08-24T11:19:52;12.02;;;5.50;;
27925;SDS011;15267;47.838;12.128;2023-08-24T11:22:19;7.40;;;5.15;;
27925;SDS011;15267;47.838;12.128;2023-08-24T11:24:46;10.27;;;5.18;;
27925;SDS011;15267;47.838;12.128;2023-08-24T11:27:12;11.02;;;5.32;;
27925;SDS011;15267;47.838;12.128;2023-08-24T11:29:38;13.02;;;5.35;;
27925;SDS011;15267;47.838;12.128;2023-08-24T11:32:04;9.00;;;4.95;;
27925;SDS011;15267;47.838;12.128;2023-08-24T11:34:31;8.13;;;5.00;;
27925;SDS011;15267;47.838;12.128;2023-08-24T11:36:57;10.57;;;5.13;;
27925;SDS011;15267;47.838;12.128;2023-08-24T11:39:24;11.85;;;5.10;;
27925;SDS011;15267;47.838;12.128;2023-08-24T11:41:56;10.88;;;5.30;;
27925;SDS011;15267;47.838;12.128;2023-08-24T11:44:23;7.85;;;5.30;;
27925;SDS011;15267;47.838;12.128;2023-08-24T11:46:49;8.27;;;4.93;;
27925;SDS011;15267;47.838;12.128;2023-08-24T11:49:15;7.32;;;4.90;;
27925;SDS011;15267;47.838;12.128;2023-08-24T11:51:41;11.77;;;5.25;;
27925;SDS011;15267;47.838;12.128;2023-08-24T11:54:07;7.95;;;4.70;;
27925;SDS011;15267;47.838;12.128;2023-08-24T11:56:34;7.90;;;5.40;;
27925;SDS011;15267;47.838;12.128;2023-08-24T11:59:05;6.93;;;4.80;;
27925;SDS011;15267;47.838;12.128;2023-08-24T12:01:31;11.45;;;5.43;;
27925;SDS011;15267;47.838;12.128;2023-08-24T12:03:58;7.72;;;5.30;;
27925;SDS011;15267;47.838;12.128;2023-08-24T12:06:26;9.63;;;5.15;;
27925;SDS011;15267;47.838;12.128;2023-08-24T12:08:53;6.60;;;5.30;;
27925;SDS011;15267;47.838;12.128;2023-08-24T12:11:20;6.43;;;5.10;;
27925;SDS011;15267;47.838;12.128;2023-08-24T12:13:50;8.45;;;5.20;;
27925;SDS011;15267;47.838;12.128;2023-08-24T12:16:17;8.20;;;5.20;;
27925;SDS011;15267;47.838;12.128;2023-08-24T12:18:47;9.00;;;5.05;;
27925;SDS011;15267;47.838;12.128;2023-08-24T12:21:14;8.10;;;5.07;;
27925;SDS011;15267;47.838;12.128;2023-08-24T12:23:40;9.15;;;5.38;;
27925;SDS011;15267;47.838;12.128;2023-08-24T12:26:06;11.30;;;5.75;;
27925;SDS011;15267;47.838;12.128;2023-08-24T12:28:32;10.63;;;5.38;;
27925;SDS011;15267;47.838;12.128;2023-08-24T12:30:58;11.98;;;5.10;;
27925;SDS011;15267;47.838;12.128;2023-08-24T12:33:29;8.80;;;5.20;;
27925;SDS011;15267;47.838;12.128;2023-08-24T12:35:56;8.27;;;5.15;;
27925;SDS011;15267;47.838;12.128;2023-08-24T12:38:24;10.95;;;5.40;;
27925;SDS011;15267;47.838;12.128;2023-08-24T12:40:50;10.27;;;5.20;;
27925;SDS011;15267;47.838;12.128;2023-08-24T12:43:16;7.38;;;5.30;;
27925;SDS011;15267;47.838;12.128;2023-08-24T12:45:42;7.45;;;4.80;;
27925;SDS011;15267;47.838;12.128;2023-08-24T12:48:09;10.18;;;4.70;;
27925;SDS011;15267;47.838;12.128;2023-08-24T12:50:35;9.13;;;5.15;;
27925;SDS011;15267;47.838;12.128;2023-08-24T12:53:02;9.85;;;5.05;;
27925;SDS011;15267;47.838;12.128;2023-08-24T12:55:31;8.73;;;5.00;;
27925;SDS011;15267;47.838;12.128;2023-08-24T12:57:57;7.13;;;4.57;;
27925;SDS011;15267;47.838;12.128;2023-08-24T13:00:23;6.90;;;4.93;;
27925;SDS011;15267;47.838;12.128;2023-08-24T13:02:49;8.82;;;4.50;;
27925;SDS011;15267;47.838;12.128;2023-08-24T13:05:16;8.48;;;4.85;;
27925;SDS011;15267;47.838;12.128;2023-08-24T13:07:42;10.82;;;4.93;;
27925;SDS011;15267;47.838;12.128;2023-08-24T13:10:08;7.63;;;4.28;;
27925;SDS011;15267;47.838;12.128;2023-08-24T13:12:34;7.45;;;4.93;;
27925;SDS011;15267;47.838;12.128;2023-08-24T13:15:00;7.55;;;4.93;;
27925;SDS011;15267;47.838;12.128;2023-08-24T13:17:27;11.15;;;4.78;;
27925;SDS011;15267;47.838;12.128;2023-08-24T13:19:53;9.63;;;5.15;;
27925;SDS011;15267;47.838;12.128;2023-08-24T13:22:19;6.28;;;4.60;;
27925;SDS011;15267;47.838;12.128;2023-08-24T13:24:45;10.25;;;4.50;;
27925;SDS011;15267;47.838;12.128;2023-08-24T13:27:11;9.55;;;4.30;;
27925;SDS011;15267;47.838;12.128;2023-08-24T13:29:37;14.52;;;4.57;;
27925;SDS011;15267;47.838;12.128;2023-08-24T13:32:03;8.90;;;4.75;;
27925;SDS011;15267;47.838;12.128;2023-08-24T13:34:30;11.82;;;4.70;;
27925;SDS011;15267;47.838;12.128;2023-08-24T13:36:56;10.90;;;4.53;;
27925;SDS011;15267;47.838;12.128;2023-08-24T13:39:23;10.32;;;4.35;;
27925;SDS011;15267;47.838;12.128;2023-08-24T13:41:49;9.27;;;4.30;;
27925;SDS011;15267;47.838;12.128;2023-08-24T13:44:15;8.18;;;4.00;;
27925;SDS011;15267;47.838;12.128;2023-08-24T13:46:41;8.60;;;4.18;;
27925;SDS011;15267;47.838;12.128;2023-08-24T13:49:07;6.93;;;3.72;;
27925;SDS011;15267;47.838;12.128;2023-08-24T13:51:33;10.85;;;4.18;;
27925;SDS011;15267;47.838;12.128;2023-08-24T13:53:59;8.05;;;3.95;;
27925;SDS011;15267;47.838;12.128;2023-08-24T13:56:25;8.07;;;3.92;;
27925;SDS011;15267;47.838;12.128;2023-08-24T13:58:51;10.07;;;4.05;;
27925;SDS011;15267;47.838;12.128;2023-08-24T14:01:18;6.78;;;4.15;;
27925;SDS011;15267;47.838;12.128;2023-08-24T14:03:44;11.07;;;4.30;;
27925;SDS011;15267;47.838;12.128;2023-08-24T14:06:10;11.18;;;4.25;;
27925;SDS011;15267;47.838;12.128;2023-08-24T14:08:36;6.65;;;3.95;;
27925;SDS011;15267;47.838;12.128;2023-08-24T14:11:02;13.38;;;4.50;;
27925;SDS011;15267;47.838;12.128;2023-08-24T14:13:28;7.57;;;4.30;;
27925;SDS011;15267;47.838;12.128;2023-08-24T14:15:55;11.05;;;4.53;;
27925;SDS011;15267;47.838;12.128;2023-08-24T14:18:21;10.60;;;4.30;;
27925;SDS011;15267;47.838;12.128;2023-08-24T14:20:48;10.75;;;4.28;;
27925;SDS011;15267;47.838;12.128;2023-08-24T14:23:14;12.00;;;4.30;;
27925;SDS011;15267;47.838;12.128;2023-08-24T14:25:40;7.05;;;4.35;;
27925;SDS011;15267;47.838;12.128;2023-08-24T14:28:05;7.05;;;4.40;;
27925;SDS011;15267;47.838;12.128;2023-08-24T14:30:31;8.80;;;4.00;;
27925;SDS011;15267;47.838;12.128;2023-08-24T14:32:57;9.32;;;4.40;;